Terminal Aerodrome Forecast
Issued by NWS

Home | Current Version | Previous Version | Text Only | Print | Product List | Glossary On
Versions: 1 2 3 4 5 6 7 8 9 10 11 12 13 14
000
FTUS43 KOAX 211143 CCA
TAFSNY
TAF COR
KSNY 211143Z 2112/2212 03015KT 1SM -SN OVC005
     FM211600 02023G32KT 1/2SM SN BLSN OVC004
     FM212200 34018G27KT 2SM -SHSN BLSN OVC025
     FM220400 33020KT 3SM BLSN OVC050=

USA.gov is the U.S. government's official web portal to all federal, state and local government web resources and services.